createdAt,value
2023-06-21T00:01:11.181Z,11.46
2023-06-21T00:06:14.668Z,11.61
2023-06-21T00:11:18.914Z,11.38
2023-06-21T00:16:21.528Z,11.95
2023-06-21T00:21:24.853Z,11.95
2023-06-21T00:26:27.312Z,11.84
2023-06-21T00:31:30.029Z,11.44
2023-06-21T00:36:32.613Z,11.66
2023-06-21T00:41:35.082Z,11.40
2023-06-21T00:46:37.625Z,11.54
2023-06-21T00:51:40.480Z,11.44
2023-06-21T00:56:43.640Z,11.81
2023-06-21T01:01:46.347Z,11.60
2023-06-21T01:07:28.984Z,11.79
2023-06-21T01:12:31.492Z,11.62
2023-06-21T01:17:36.057Z,11.32
2023-06-21T01:23:18.666Z,11.63
2023-06-21T01:29:00.345Z,11.42
2023-06-21T01:34:04.694Z,11.45
2023-06-21T01:39:11.143Z,11.44
2023-06-21T01:44:15.635Z,11.24
2023-06-21T01:49:18.696Z,10.91
2023-06-21T01:54:22.153Z,11.12
2023-06-21T01:59:24.683Z,11.38
2023-06-21T02:04:28.150Z,11.08
2023-06-21T02:09:32.277Z,11.36
2023-06-21T02:14:34.676Z,11.20
2023-06-21T02:19:40.100Z,10.72
2023-06-21T02:24:44.779Z,10.34
2023-06-21T02:29:47.266Z,10.69
2023-06-21T02:34:50.436Z,11.22
2023-06-21T02:39:52.928Z,11.25
2023-06-21T02:44:55.395Z,11.42
2023-06-21T02:49:57.851Z,11.24
2023-06-21T02:55:00.544Z,11.22
2023-06-21T03:00:06.139Z,11.47
2023-06-21T03:05:09.824Z,11.10
2023-06-21T03:10:14.227Z,11.35
2023-06-21T03:15:18.148Z,11.50
2023-06-21T03:20:23.928Z,10.80
2023-06-21T03:25:28.814Z,11.50
2023-06-21T03:30:31.936Z,11.67
2023-06-21T03:35:36.596Z,11.71
2023-06-21T03:40:39.140Z,11.19
2023-06-21T03:45:41.517Z,11.35
2023-06-21T03:50:45.133Z,12.34
2023-06-21T03:55:47.599Z,11.82
2023-06-21T04:00:50.056Z,12.36
2023-06-21T04:05:53.274Z,12.88
2023-06-21T04:10:57.380Z,12.37
2023-06-21T04:15:59.819Z,13.22
2023-06-21T04:21:02.286Z,13.07
2023-06-21T04:26:07.619Z,13.55
2023-06-21T04:31:10.162Z,13.49
2023-06-21T04:36:12.619Z,13.20
2023-06-21T04:41:15.016Z,14.00
2023-06-21T04:46:19.600Z,13.02
2023-06-21T04:51:22.392Z,13.17
2023-06-21T04:56:24.801Z,13.85
2023-06-21T05:01:27.380Z,14.51
2023-06-21T05:06:29.923Z,14.32
2023-06-21T05:11:32.464Z,14.75
2023-06-21T05:16:35.117Z,14.68
2023-06-21T05:21:37.600Z,15.03
2023-06-21T05:26:40.020Z,15.08
2023-06-21T05:31:44.018Z,15.36
2023-06-21T05:36:46.417Z,15.36
2023-06-21T05:41:48.860Z,15.51
2023-06-21T05:46:51.195Z,15.52
2023-06-21T05:51:53.770Z,15.60
2023-06-21T05:56:56.813Z,15.68
2023-06-21T06:01:59.617Z,15.79
2023-06-21T06:07:02.061Z,15.33
2023-06-21T06:12:05.337Z,16.29
2023-06-21T06:17:08.313Z,16.12
2023-06-21T06:22:10.874Z,16.04
2023-06-21T06:27:13.243Z,16.43
2023-06-21T06:32:15.700Z,15.84
2023-06-21T06:37:21.757Z,16.68
2023-06-21T06:42:26.589Z,15.72
2023-06-21T06:47:30.711Z,16.77
2023-06-21T06:52:33.205Z,16.75
2023-06-21T06:57:41.588Z,16.70
2023-06-21T07:02:49.099Z,17.00
2023-06-21T07:07:52.167Z,17.06
2023-06-21T07:12:55.002Z,17.14
2023-06-21T07:17:57.673Z,17.22
2023-06-21T07:23:00.222Z,17.27
2023-06-21T07:28:02.721Z,17.53
2023-06-21T07:33:06.705Z,16.78
2023-06-21T07:38:09.913Z,17.40
2023-06-21T07:43:12.290Z,17.83
2023-06-21T07:48:14.871Z,17.56
2023-06-21T07:53:17.415Z,17.88
2023-06-21T07:58:19.864Z,17.75
2023-06-21T08:03:22.358Z,17.91
2023-06-21T08:08:25.053Z,18.08
2023-06-21T08:13:27.915Z,17.82
2023-06-21T08:18:30.385Z,18.26
2023-06-21T08:23:33.103Z,18.34
2023-06-21T08:28:35.784Z,18.19
2023-06-21T08:33:38.269Z,17.51
2023-06-21T08:38:41.077Z,18.61
2023-06-21T08:43:43.625Z,18.42
2023-06-21T08:48:48.353Z,17.87
2023-06-21T08:54:17.885Z,18.88
2023-06-21T08:59:38.264Z,19.05
2023-06-21T09:04:45.267Z,19.21
2023-06-21T09:09:48.388Z,19.15
2023-06-21T09:14:51.385Z,19.39
2023-06-21T09:19:54.213Z,19.38
2023-06-21T09:24:56.721Z,19.62
2023-06-21T09:30:03.542Z,19.60
2023-06-21T09:35:15.309Z,19.30
2023-06-21T09:40:20.313Z,19.85
2023-06-21T09:45:22.810Z,19.99
2023-06-21T09:50:25.387Z,19.15
2023-06-21T09:55:27.848Z,19.87
2023-06-21T10:00:36.777Z,19.37
2023-06-21T10:05:54.646Z,20.30
2023-06-21T10:10:57.278Z,20.18
2023-06-21T10:16:01.318Z,20.34
2023-06-21T10:21:05.802Z,20.51
2023-06-21T10:26:11.189Z,20.33
2023-06-21T10:31:17.024Z,20.62
2023-06-21T10:36:23.393Z,20.23
2023-06-21T10:41:25.929Z,20.44
2023-06-21T10:46:29.018Z,20.27
2023-06-21T10:51:35.302Z,20.70
2023-06-21T10:56:37.892Z,20.62
2023-06-21T11:01:40.570Z,20.28
2023-06-21T11:06:44.524Z,20.49
2023-06-21T11:11:54.612Z,19.84
2023-06-21T11:17:09.865Z,20.56
2023-06-21T11:22:17.246Z,20.52
2023-06-21T11:27:20.014Z,20.57
2023-06-21T11:32:22.699Z,20.27
2023-06-21T11:37:45.339Z,21.03
2023-06-21T11:42:49.461Z,20.61
2023-06-21T11:48:01.835Z,21.00
2023-06-21T11:53:22.488Z,20.89
2023-06-21T11:58:26.647Z,20.77
2023-06-21T12:03:30.801Z,21.28
2023-06-21T12:09:29.701Z,21.56
2023-06-21T12:14:50.598Z,20.88
2023-06-21T12:19:53.065Z,21.49
2023-06-21T12:24:56.867Z,21.49
2023-06-21T12:29:59.368Z,21.66
2023-06-21T12:35:05.411Z,21.57
2023-06-21T12:40:08.647Z,21.82
2023-06-21T12:45:14.832Z,21.82
2023-06-21T12:50:24.636Z,21.55
2023-06-21T12:55:27.171Z,21.81
2023-06-21T13:00:29.716Z,21.74
2023-06-21T13:05:36.965Z,21.67
2023-06-21T13:10:39.392Z,22.00
2023-06-21T13:15:41.762Z,21.95
2023-06-21T13:20:44.590Z,21.62
2023-06-21T13:25:47.172Z,22.17
2023-06-21T13:30:51.069Z,22.17
2023-06-21T13:35:54.008Z,22.23
2023-06-21T13:40:56.338Z,22.33
2023-06-21T13:45:59.101Z,22.25
2023-06-21T13:51:01.744Z,22.34
2023-06-21T13:56:04.319Z,22.35
2023-06-21T14:01:08.547Z,22.18
2023-06-21T14:06:10.893Z,22.05
2023-06-21T14:11:13.518Z,22.44
2023-06-21T14:16:15.932Z,22.43
2023-06-21T14:21:18.366Z,22.03
2023-06-21T14:26:20.757Z,21.81
2023-06-21T14:31:23.932Z,22.22
2023-06-21T14:36:26.292Z,22.14
2023-06-21T14:41:28.737Z,22.01
2023-06-21T14:46:31.210Z,21.89
2023-06-21T14:51:36.152Z,22.05
2023-06-21T14:56:38.864Z,21.99
2023-06-21T15:01:41.339Z,21.93
2023-06-21T15:06:44.247Z,21.84
2023-06-21T15:11:46.806Z,21.76
2023-06-21T15:16:50.423Z,21.52
2023-06-21T15:21:53.068Z,20.80
2023-06-21T15:26:55.460Z,21.48
2023-06-21T15:31:57.840Z,21.30
2023-06-21T15:37:00.146Z,20.73
2023-06-21T15:42:02.620Z,20.77
2023-06-21T15:47:07.857Z,21.25
2023-06-21T15:52:10.769Z,21.22
2023-06-21T15:57:14.458Z,20.75
2023-06-21T16:02:17.958Z,21.10
2023-06-21T16:07:24.499Z,20.31
2023-06-21T16:12:26.836Z,20.68
2023-06-21T16:17:29.246Z,20.43
2023-06-21T16:22:31.770Z,20.60
2023-06-21T16:27:34.154Z,20.68
2023-06-21T16:32:36.615Z,20.42
2023-06-21T16:37:40.459Z,20.69
2023-06-21T16:42:42.873Z,20.51
2023-06-21T16:47:45.362Z,20.48
2023-06-21T16:52:47.792Z,20.42
2023-06-21T16:57:50.288Z,20.47
2023-06-21T17:02:54.845Z,20.16
2023-06-21T17:07:57.236Z,20.33
2023-06-21T17:13:01.207Z,20.13
2023-06-21T17:18:03.697Z,20.13
2023-06-21T17:23:07.177Z,19.90
2023-06-21T17:28:09.620Z,19.95
2023-06-21T17:33:12.150Z,19.27
2023-06-21T17:38:15.676Z,19.71
2023-06-21T17:43:18.178Z,19.45
2023-06-21T17:48:20.695Z,19.20
2023-06-21T17:53:23.296Z,19.00
2023-06-21T17:58:25.978Z,19.24
2023-06-21T18:03:28.401Z,19.09
2023-06-21T18:08:30.927Z,18.61
2023-06-21T18:13:33.350Z,18.88
2023-06-21T18:18:38.375Z,18.77
2023-06-21T18:23:41.794Z,18.52
2023-06-21T18:28:44.358Z,18.20
2023-06-21T18:33:49.201Z,18.02
2023-06-21T18:38:52.987Z,18.04
2023-06-21T18:43:56.506Z,17.96
2023-06-21T18:48:59.393Z,17.36
2023-06-21T18:54:02.416Z,17.67
2023-06-21T18:59:06.267Z,17.59
2023-06-21T19:04:11.117Z,17.57
2023-06-21T19:09:13.552Z,17.64
2023-06-21T19:14:16.412Z,17.54
2023-06-21T19:19:19.280Z,17.24
2023-06-21T19:24:22.319Z,17.06
2023-06-21T19:29:24.746Z,17.24
2023-06-21T19:34:27.122Z,16.39
2023-06-21T19:39:29.516Z,17.04
2023-06-21T19:44:32.017Z,16.94
2023-06-21T19:49:35.101Z,16.74
2023-06-21T19:54:42.200Z,16.03
2023-06-21T19:59:44.590Z,16.61
2023-06-21T20:04:46.962Z,16.12
2023-06-21T20:09:53.193Z,16.38
2023-06-21T20:14:55.736Z,16.16
2023-06-21T20:19:58.232Z,15.79
2023-06-21T20:25:02.280Z,15.72
2023-06-21T20:30:07.447Z,15.97
2023-06-21T20:35:10.407Z,15.48
2023-06-21T20:40:15.967Z,15.49
2023-06-21T20:45:24.225Z,15.30
2023-06-21T20:50:26.847Z,15.41
2023-06-21T20:55:30.094Z,15.32
2023-06-21T21:00:32.725Z,15.08
2023-06-21T21:05:35.299Z,15.28
2023-06-21T21:10:37.813Z,15.34
2023-06-21T21:15:40.340Z,15.11
2023-06-21T21:20:42.730Z,14.50
2023-06-21T21:25:45.174Z,14.66
2023-06-21T21:30:49.032Z,14.47
2023-06-21T21:35:51.441Z,14.84
2023-06-21T21:40:53.970Z,14.42
2023-06-21T21:45:56.347Z,14.50
2023-06-21T21:50:58.983Z,14.31
2023-06-21T21:56:01.486Z,14.49
2023-06-21T22:01:03.794Z,14.18
2023-06-21T22:06:06.258Z,13.02
2023-06-21T22:11:08.909Z,13.95
2023-06-21T22:16:13.804Z,14.03
2023-06-21T22:21:16.259Z,13.95
2023-06-21T22:26:19.077Z,14.14
2023-06-21T22:31:21.538Z,14.08
2023-06-21T22:36:24.091Z,13.86
2023-06-21T22:41:27.966Z,13.52
2023-06-21T22:46:30.706Z,13.40
2023-06-21T22:51:36.627Z,13.50
2023-06-21T22:56:39.585Z,13.66
2023-06-21T23:01:42.012Z,12.74
2023-06-21T23:06:44.501Z,13.05
2023-06-21T23:11:46.960Z,13.10
2023-06-21T23:16:49.396Z,13.44
2023-06-21T23:21:52.489Z,13.27
2023-06-21T23:26:55.714Z,12.28
2023-06-21T23:31:58.520Z,13.26
2023-06-21T23:37:02.045Z,12.79
2023-06-21T23:42:04.807Z,12.66
2023-06-21T23:47:09.664Z,13.08
2023-06-21T23:52:12.702Z,13.05
2023-06-21T23:57:15.187Z,12.86
